createdAt,value
2022-12-03T00:01:02.957Z,102463.63
2022-12-03T00:03:35.997Z,102474.19
2022-12-03T00:06:03.366Z,102466.56
2022-12-03T00:08:34.900Z,102456.28
2022-12-03T00:11:03.328Z,102455.28
2022-12-03T00:13:30.402Z,102463.00
2022-12-03T00:15:59.205Z,102461.16
2022-12-03T00:18:25.985Z,102459.38
2022-12-03T00:20:52.975Z,102464.41
2022-12-03T00:23:19.778Z,102466.97
2022-12-03T00:25:46.729Z,102460.03
2022-12-03T00:28:13.679Z,102453.97
2022-12-03T00:30:40.635Z,102455.78
2022-12-03T00:33:07.481Z,102450.66
2022-12-03T00:35:34.407Z,102443.94
2022-12-03T00:38:01.460Z,102438.78
2022-12-03T00:40:28.322Z,102450.66
2022-12-03T00:42:56.048Z,102442.13
2022-12-03T00:45:22.692Z,102436.97
2022-12-03T00:47:49.496Z,102436.97
2022-12-03T00:50:18.740Z,102433.50
2022-12-03T00:52:48.126Z,102429.25
2022-12-03T00:55:19.537Z,102429.13
2022-12-03T00:57:46.161Z,102436.72
2022-12-03T01:00:13.830Z,102430.66
2022-12-03T01:02:40.509Z,102427.34
2022-12-03T01:05:07.759Z,102424.63
2022-12-03T01:07:35.126Z,102433.38
2022-12-03T01:10:04.734Z,102421.28
2022-12-03T01:12:32.395Z,102418.69
2022-12-03T01:14:59.377Z,102420.50
2022-12-03T01:17:26.267Z,102416.13
2022-12-03T01:19:56.197Z,102410.97
2022-12-03T01:22:25.930Z,102411.88
2022-12-03T01:24:53.010Z,102414.59
2022-12-03T01:27:19.761Z,102414.59
2022-12-03T01:29:46.690Z,102400.00
2022-12-03T01:32:22.340Z,102406.06
2022-12-03T01:34:51.925Z,102404.28
2022-12-03T01:37:20.474Z,102406.88
2022-12-03T01:39:47.179Z,102410.31
2022-12-03T01:42:26.839Z,102408.66
2022-12-03T01:44:57.604Z,102411.09
2022-12-03T01:47:33.993Z,102410.31
2022-12-03T01:50:06.161Z,102418.31
2022-12-03T01:52:36.947Z,102409.66
2022-12-03T01:55:07.904Z,102416.63
2022-12-03T01:57:58.228Z,102401.06
2022-12-03T02:00:31.042Z,102411.47
2022-12-03T02:03:04.443Z,102404.75
2022-12-03T02:05:33.286Z,102404.75
2022-12-03T02:08:00.585Z,102410.16
2022-12-03T02:10:36.155Z,102404.22
2022-12-03T02:13:09.155Z,102408.50
2022-12-03T02:15:37.989Z,102400.78
2022-12-03T02:18:04.893Z,102408.59
2022-12-03T02:20:39.472Z,102394.84
2022-12-03T02:23:13.469Z,102399.22
2022-12-03T02:25:40.417Z,102399.22
2022-12-03T02:28:09.000Z,102393.94
2022-12-03T02:30:36.978Z,102394.97
2022-12-03T02:33:06.433Z,102394.97
2022-12-03T02:35:35.453Z,102392.38
2022-12-03T02:38:21.730Z,102395.97
2022-12-03T02:40:52.453Z,102391.84
2022-12-03T02:43:20.758Z,102402.16
2022-12-03T02:45:51.921Z,102394.44
2022-12-03T02:48:26.367Z,102391.97
2022-12-03T02:50:56.350Z,102393.78
2022-12-03T02:53:45.125Z,102392.19
2022-12-03T02:56:15.168Z,102391.31
2022-12-03T02:58:47.342Z,102383.34
2022-12-03T03:01:16.029Z,102386.16
2022-12-03T03:03:44.862Z,102394.78
2022-12-03T03:06:12.186Z,102380.09
2022-12-03T03:08:40.601Z,102376.75
2022-12-03T03:11:11.438Z,102379.69
2022-12-03T03:13:39.188Z,102367.72
2022-12-03T03:16:07.429Z,102376.44
2022-12-03T03:18:34.910Z,102372.22
2022-12-03T03:21:04.941Z,102370.53
2022-12-03T03:23:32.356Z,102374.91
2022-12-03T03:26:06.560Z,102372.47
2022-12-03T03:28:35.919Z,102368.84
2022-12-03T03:31:05.242Z,102366.03
2022-12-03T03:33:32.879Z,102361.13
2022-12-03T03:36:00.779Z,102359.09
2022-12-03T03:38:29.856Z,102360.88
2022-12-03T03:40:59.857Z,102368.84
2022-12-03T03:43:30.210Z,102362.44
2022-12-03T03:45:57.578Z,102349.69
2022-12-03T03:48:24.351Z,102352.38
2022-12-03T03:50:52.360Z,102360.78
2022-12-03T03:53:21.261Z,102351.22
2022-12-03T03:55:48.034Z,102348.53
2022-12-03T03:58:14.529Z,102349.31
2022-12-03T04:00:46.457Z,102345.06
2022-12-03T04:03:14.624Z,102347.91
2022-12-03T04:05:41.547Z,102346.19
2022-12-03T04:08:08.112Z,102342.97
2022-12-03T04:10:54.146Z,102348.25
2022-12-03T04:13:23.165Z,102349.16
2022-12-03T04:15:49.924Z,102337.94
2022-12-03T04:18:35.049Z,102342.28
2022-12-03T04:21:20.340Z,102343.09
2022-12-03T04:23:49.444Z,102343.88
2022-12-03T04:26:35.119Z,102341.28
2022-12-03T04:29:03.240Z,102334.34
2022-12-03T04:31:48.905Z,102341.28
2022-12-03T04:34:36.013Z,102339.63
2022-12-03T04:37:03.553Z,102336.13
2022-12-03T04:39:30.076Z,102328.41
2022-12-03T04:41:56.717Z,102331.00
2022-12-03T04:44:38.836Z,102331.09
2022-12-03T04:47:07.744Z,102324.03
2022-12-03T04:49:36.077Z,102327.63
2022-12-03T04:52:03.356Z,102331.22
2022-12-03T04:54:30.506Z,102338.19
2022-12-03T04:56:57.779Z,102327.63
2022-12-03T04:59:24.427Z,102333.69
2022-12-03T05:01:51.836Z,102335.34
2022-12-03T05:04:21.448Z,102333.19
2022-12-03T05:06:51.298Z,102334.09
2022-12-03T05:09:17.913Z,102340.03
2022-12-03T05:11:45.416Z,102330.38
2022-12-03T05:14:12.093Z,102342.38
2022-12-03T05:16:44.726Z,102335.44
2022-12-03T05:19:13.229Z,102330.03
2022-12-03T05:21:39.583Z,102336.72
2022-12-03T05:24:07.881Z,102339.19
2022-12-03T05:26:35.206Z,102336.59
2022-12-03T05:29:02.908Z,102328.00
2022-12-03T05:31:29.573Z,102329.78
2022-12-03T05:33:56.168Z,102325.66
2022-12-03T05:36:22.841Z,102324.09
2022-12-03T05:38:53.212Z,102321.53
2022-12-03T05:41:39.184Z,102328.59
2022-12-03T05:44:06.673Z,102323.31
2022-12-03T05:46:34.436Z,102316.50
2022-12-03T05:49:05.441Z,102322.44
2022-12-03T05:51:32.715Z,102321.53
2022-12-03T05:54:00.442Z,102310.22
2022-12-03T05:56:31.008Z,102307.38
2022-12-03T05:58:58.029Z,102299.41
2022-12-03T06:01:24.862Z,102311.63
2022-12-03T06:03:51.727Z,102308.06
2022-12-03T06:06:20.828Z,102307.16
2022-12-03T06:08:47.349Z,102300.19
2022-12-03T06:11:14.654Z,102299.28
2022-12-03T06:13:41.157Z,102300.19
2022-12-03T06:16:07.760Z,102295.69
2022-12-03T06:18:34.919Z,102289.66
2022-12-03T06:21:01.391Z,102294.94
2022-12-03T06:23:29.229Z,102288.75
2022-12-03T06:25:56.463Z,102290.53
2022-12-03T06:28:24.912Z,102287.06
2022-12-03T06:30:54.897Z,102294.00
2022-12-03T06:33:21.722Z,102283.84
2022-12-03T06:35:49.022Z,102290.91
2022-12-03T06:38:15.548Z,102287.31
2022-12-03T06:40:43.551Z,102284.63
2022-12-03T06:43:10.115Z,102291.69
2022-12-03T06:45:36.663Z,102291.44
2022-12-03T06:48:05.961Z,102283.59
2022-12-03T06:50:32.544Z,102288.50
2022-12-03T06:52:59.818Z,102282.59
2022-12-03T06:55:27.988Z,102291.19
2022-12-03T06:57:54.876Z,102293.56
2022-12-03T07:00:22.542Z,102296.34
2022-12-03T07:02:49.875Z,102285.03
2022-12-03T07:05:16.974Z,102288.41
2022-12-03T07:07:52.477Z,102292.75
2022-12-03T07:10:20.267Z,102299.47
2022-12-03T07:12:46.988Z,102298.59
2022-12-03T07:15:16.044Z,102298.34
2022-12-03T07:17:43.364Z,102292.28
2022-12-03T07:20:11.279Z,102291.38
2022-12-03T07:22:38.653Z,102303.59
2022-12-03T07:25:06.215Z,102306.06
2022-12-03T07:27:32.904Z,102297.66
2022-12-03T07:29:59.602Z,102300.00
2022-12-03T07:32:26.458Z,102306.47
2022-12-03T07:34:53.215Z,102302.72
2022-12-03T07:37:23.613Z,102308.13
2022-12-03T07:39:53.361Z,102310.56
2022-12-03T07:42:22.774Z,102313.94
2022-12-03T07:44:49.287Z,102313.28
2022-12-03T07:47:16.543Z,102301.19
2022-12-03T07:49:46.362Z,102306.47
2022-12-03T07:52:13.199Z,102302.09
2022-12-03T07:54:41.184Z,102308.78
2022-12-03T07:57:07.735Z,102310.56
2022-12-03T07:59:34.568Z,102312.16
2022-12-03T08:02:02.432Z,102303.63
2022-12-03T08:04:29.128Z,102306.88
2022-12-03T08:06:55.860Z,102309.44
2022-12-03T08:09:22.580Z,102302.50
2022-12-03T08:11:52.241Z,102302.50
2022-12-03T08:14:22.649Z,102306.50
2022-12-03T08:16:49.342Z,102297.91
2022-12-03T08:19:18.052Z,102304.06
2022-12-03T08:21:45.464Z,102297.38
2022-12-03T08:24:19.729Z,102295.66
2022-12-03T08:26:49.612Z,102294.78
2022-12-03T08:29:19.663Z,102286.16
2022-12-03T08:31:49.993Z,102281.00
2022-12-03T08:34:22.662Z,102291.44
2022-12-03T08:37:06.208Z,102299.03
2022-12-03T08:39:44.547Z,102286.81
2022-12-03T08:42:31.746Z,102292.09
2022-12-03T08:45:21.272Z,102284.38
2022-12-03T08:47:51.184Z,102286.16
2022-12-03T08:50:40.168Z,102286.16
2022-12-03T08:53:28.621Z,102282.66
2022-12-03T08:55:57.812Z,102282.53
2022-12-03T08:58:36.846Z,102278.97
2022-12-03T09:01:12.579Z,102289.81
2022-12-03T09:03:51.447Z,102289.94
2022-12-03T09:06:18.140Z,102283.63
2022-12-03T09:08:44.725Z,102286.97
2022-12-03T09:11:13.771Z,102292.13
2022-12-03T09:13:43.408Z,102279.00
2022-12-03T09:16:10.395Z,102275.66
2022-12-03T09:18:37.357Z,102271.53
2022-12-03T09:21:05.041Z,102277.72
2022-12-03T09:23:31.813Z,102274.09
2022-12-03T09:25:59.285Z,102271.53
2022-12-03T09:28:26.792Z,102276.16
2022-12-03T09:30:54.474Z,102271.81
2022-12-03T09:33:21.378Z,102268.22
2022-12-03T09:35:48.069Z,102267.47
2022-12-03T09:38:14.632Z,102270.31
2022-12-03T09:40:41.846Z,102277.91
2022-12-03T09:43:09.261Z,102275.06
2022-12-03T09:45:36.781Z,102274.72
2022-12-03T09:48:04.232Z,102283.19
2022-12-03T09:53:54.408Z,102279.63
2022-12-03T09:56:23.060Z,102273.56
2022-12-03T09:58:50.677Z,102276.00
2022-12-03T10:01:18.246Z,102278.56
2022-12-03T10:03:47.928Z,102273.81
2022-12-03T10:06:18.807Z,102279.34
2022-12-03T10:08:48.718Z,102280.59
2022-12-03T10:11:17.231Z,102283.16
2022-12-03T10:13:48.445Z,102283.16
2022-12-03T10:16:18.355Z,102284.84
2022-12-03T10:18:48.985Z,102279.34
2022-12-03T10:21:31.317Z,102285.91
2022-12-03T10:24:25.804Z,102275.13
2022-12-03T10:26:54.499Z,102280.66
2022-12-03T10:29:31.647Z,102272.56
2022-12-03T10:32:09.548Z,102280.16
2022-12-03T10:34:41.353Z,102275.13
2022-12-03T10:37:22.362Z,102280.94
2022-12-03T10:40:02.445Z,102269.63
2022-12-03T10:42:35.108Z,102267.03
2022-12-03T10:45:28.806Z,102252.66
2022-12-03T10:48:15.146Z,102255.34
2022-12-03T10:51:04.809Z,102246.97
2022-12-03T10:53:36.031Z,102238.00
2022-12-03T10:56:06.010Z,102234.50
2022-12-03T10:58:38.163Z,102237.38
2022-12-03T11:01:21.452Z,102232.88
2022-12-03T11:03:48.693Z,102229.50
2022-12-03T11:06:21.639Z,102243.41
2022-12-03T11:08:56.775Z,102230.44
2022-12-03T11:11:25.057Z,102232.88
2022-12-03T11:13:58.720Z,102229.25
2022-12-03T11:16:53.560Z,102225.03
2022-12-03T11:19:40.226Z,102227.47
2022-12-03T11:22:06.694Z,102221.53
2022-12-03T11:24:35.813Z,102210.50
2022-12-03T11:27:02.293Z,102204.97
2022-12-03T11:29:54.678Z,102205.31
2022-12-03T11:33:00.533Z,102209.72
2022-12-03T11:35:35.748Z,102200.94
2022-12-03T11:38:37.349Z,102202.00
2022-12-03T11:41:17.254Z,102196.31
2022-12-03T11:44:00.621Z,102192.69
2022-12-03T11:46:38.784Z,102188.34
2022-12-03T11:49:32.769Z,102189.13
2022-12-03T11:52:01.724Z,102186.44
2022-12-03T11:54:29.111Z,102189.88
2022-12-03T11:56:56.655Z,102175.63
2022-12-03T11:59:23.788Z,102183.59
2022-12-03T12:01:50.406Z,102179.00
2022-12-03T12:04:35.642Z,102172.81
2022-12-03T12:07:02.846Z,102174.63
2022-12-03T12:09:54.159Z,102171.28
2022-12-03T12:12:28.657Z,102177.97
2022-12-03T12:14:55.958Z,102172.69
2022-12-03T12:17:36.531Z,102172.59
2022-12-03T12:20:24.944Z,102163.97
2022-12-03T12:22:54.815Z,102165.22
2022-12-03T12:25:35.924Z,102154.06
2022-12-03T12:28:05.407Z,102157.63
2022-12-03T12:30:33.843Z,102148.78
2022-12-03T12:33:16.776Z,102143.41
2022-12-03T12:35:43.494Z,102133.91
2022-12-03T12:38:11.322Z,102137.88
2022-12-03T12:40:42.674Z,102130.94
2022-12-03T12:43:25.210Z,102134.66
2022-12-03T12:45:56.720Z,102129.28
2022-12-03T12:48:29.272Z,102130.69
2022-12-03T12:51:06.553Z,102129.03
2022-12-03T12:53:35.291Z,102125.16
2022-12-03T12:56:27.915Z,102125.41
2022-12-03T12:58:57.273Z,102122.81
2022-12-03T13:01:30.070Z,102128.97
2022-12-03T13:03:57.293Z,102125.78
2022-12-03T13:06:29.459Z,102115.38
2022-12-03T13:08:57.939Z,102118.81
2022-12-03T13:11:24.789Z,102119.47
2022-12-03T13:13:55.542Z,102115.13
2022-12-03T13:16:32.644Z,102111.41
2022-12-03T13:19:01.017Z,102120.13
2022-12-03T13:21:42.297Z,102119.47
2022-12-03T13:24:39.273Z,102115.91
2022-12-03T13:27:29.905Z,102115.38
2022-12-03T13:30:02.554Z,102104.28
2022-12-03T13:32:35.877Z,102105.31
2022-12-03T13:35:26.304Z,102113.91
2022-12-03T13:37:53.489Z,102102.50
2022-12-03T13:40:35.059Z,102101.59
2022-12-03T13:43:12.363Z,102100.69
2022-12-03T13:45:55.338Z,102097.09
2022-12-03T13:48:34.516Z,102094.03
2022-12-03T13:51:23.162Z,102092.50
2022-12-03T13:53:50.060Z,102095.19
2022-12-03T13:56:29.538Z,102100.47
2022-12-03T13:58:58.351Z,102097.53
2022-12-03T14:01:27.428Z,102099.59
2022-12-03T14:03:54.675Z,102091.41
2022-12-03T14:06:24.180Z,102093.84
2022-12-03T14:08:51.446Z,102092.94
2022-12-03T14:11:36.651Z,102093.59
2022-12-03T14:14:03.479Z,102085.63
2022-12-03T14:16:30.388Z,102085.63
2022-12-03T14:18:57.513Z,102084.09
2022-12-03T14:21:24.297Z,102083.06
2022-12-03T14:23:51.045Z,102072.91
2022-12-03T14:26:17.592Z,102081.53
2022-12-03T14:28:44.412Z,102070.47
2022-12-03T14:31:13.421Z,102058.66
2022-12-03T14:33:40.352Z,102069.69
2022-12-03T14:36:09.298Z,102069.28
2022-12-03T14:38:38.056Z,102075.31
2022-12-03T14:41:04.834Z,102070.19
2022-12-03T14:43:31.486Z,102064.25
2022-12-03T14:45:58.328Z,102060.91
2022-12-03T14:48:25.126Z,102075.56
2022-12-03T14:50:53.159Z,102067.88
2022-12-03T14:53:24.111Z,102072.88
2022-12-03T14:55:56.260Z,102073.00
2022-12-03T14:58:26.935Z,102075.31
2022-12-03T15:00:53.869Z,102080.09
2022-12-03T15:03:23.893Z,102080.75
2022-12-03T15:05:52.119Z,102073.69
2022-12-03T15:08:19.553Z,102066.53
2022-12-03T15:10:46.525Z,102061.50
2022-12-03T15:13:13.801Z,102063.03
2022-12-03T15:15:41.009Z,102071.66
2022-12-03T15:18:07.995Z,102066.41
2022-12-03T15:20:38.780Z,102064.47
2022-12-03T15:23:08.886Z,102067.19
2022-12-03T15:25:40.534Z,102071.41
2022-12-03T15:28:07.829Z,102068.19
2022-12-03T15:30:39.719Z,102069.09
2022-12-03T15:33:06.443Z,102068.19
2022-12-03T15:35:33.998Z,102071.66
2022-12-03T15:38:00.989Z,102072.56
2022-12-03T15:40:27.843Z,102069.22
2022-12-03T15:42:57.090Z,102071.66
2022-12-03T15:45:23.589Z,102070.50
2022-12-03T15:47:50.178Z,102066.66
2022-12-03T15:50:17.634Z,102071.56
2022-12-03T15:52:45.255Z,102079.28
2022-12-03T15:55:27.765Z,102076.69
2022-12-03T15:57:54.761Z,102079.78
2022-12-03T16:00:24.439Z,102080.44
2022-12-03T16:02:53.068Z,102079.53
2022-12-03T16:05:20.483Z,102081.63
2022-12-03T16:07:49.198Z,102076.34
2022-12-03T16:10:18.150Z,102077.47
2022-12-03T16:12:45.732Z,102080.19
2022-12-03T16:15:12.721Z,102077.59
2022-12-03T16:17:39.803Z,102075.03
2022-12-03T16:20:07.603Z,102074.00
2022-12-03T16:22:35.515Z,102073.13
2022-12-03T16:25:07.525Z,102075.56
2022-12-03T16:27:37.976Z,102073.78
2022-12-03T16:30:06.736Z,102067.06
2022-12-03T16:32:33.667Z,102069.78
2022-12-03T16:35:00.173Z,102066.19
2022-12-03T16:37:30.187Z,102068.88
2022-12-03T16:39:57.951Z,102068.00
2022-12-03T16:42:24.747Z,102066.94
2022-12-03T16:44:55.153Z,102054.75
2022-12-03T16:47:22.643Z,102059.25
2022-12-03T16:49:49.897Z,102058.78
2022-12-03T16:52:17.441Z,102055.41
2022-12-03T16:54:44.830Z,102051.81
2022-12-03T16:57:13.664Z,102042.19
2022-12-03T16:59:41.614Z,102041.31
2022-12-03T17:02:09.069Z,102052.59
2022-12-03T17:04:36.387Z,102053.50
2022-12-03T17:07:03.666Z,102042.97
2022-12-03T17:09:33.633Z,102049.53
2022-12-03T17:12:02.075Z,102045.94
2022-12-03T17:14:33.236Z,102043.50
2022-12-03T17:17:00.557Z,102046.06
2022-12-03T17:19:27.242Z,102035.78
2022-12-03T17:21:54.321Z,102046.59
2022-12-03T17:24:21.495Z,102039.41
2022-12-03T17:26:48.063Z,102052.38
2022-12-03T17:29:18.123Z,102050.47
2022-12-03T17:31:47.322Z,102054.06
2022-12-03T17:34:14.652Z,102051.59
2022-12-03T17:36:41.474Z,102048.13
2022-12-03T17:39:08.000Z,102041.47
2022-12-03T17:41:37.856Z,102045.16
2022-12-03T17:44:10.163Z,102051.88
2022-12-03T17:46:38.574Z,102058.78
2022-12-03T17:49:05.550Z,102044.28
2022-12-03T17:51:35.402Z,102041.72
2022-12-03T17:54:02.375Z,102050.03
2022-12-03T17:56:29.342Z,102049.94
2022-12-03T17:58:57.252Z,102043.38
2022-12-03T18:01:24.083Z,102041.72
2022-12-03T18:03:50.671Z,102037.09
2022-12-03T18:06:17.270Z,102039.69
2022-12-03T18:08:43.770Z,102044.03
2022-12-03T18:11:10.312Z,102038.63
2022-12-03T18:13:37.940Z,102030.94
2022-12-03T18:16:09.898Z,102031.84
2022-12-03T18:18:36.796Z,102035.94
2022-12-03T18:21:05.659Z,102024.41
2022-12-03T18:23:33.300Z,102023.50
2022-12-03T18:26:00.472Z,102026.06
2022-12-03T18:28:27.805Z,102018.63
2022-12-03T18:30:54.692Z,102025.53
2022-12-03T18:33:24.727Z,102026.31
2022-12-03T18:35:54.685Z,102021.31
2022-12-03T18:38:22.624Z,102019.75
2022-12-03T18:40:53.718Z,102014.59
2022-12-03T18:43:20.262Z,102013.72
2022-12-03T18:45:49.519Z,102019.75
2022-12-03T18:48:20.036Z,102018.50
2022-12-03T18:50:48.165Z,102019.81
2022-12-03T18:53:17.705Z,102013.63
2022-12-03T18:55:46.700Z,102013.63
2022-12-03T18:58:16.657Z,102022.38
2022-12-03T19:00:43.382Z,102023.13
2022-12-03T19:03:11.049Z,102014.53
2022-12-03T19:05:37.732Z,102010.19
2022-12-03T19:08:12.975Z,102010.06
2022-12-03T19:10:40.038Z,102013.63
2022-12-03T19:13:09.024Z,102013.50
2022-12-03T19:15:41.162Z,102013.63
2022-12-03T19:18:07.997Z,102012.75
2022-12-03T19:20:34.899Z,102017.97
2022-12-03T19:23:03.190Z,102008.50
2022-12-03T19:25:29.968Z,102019.00
2022-12-03T19:27:57.163Z,102015.41
2022-12-03T19:30:24.039Z,102013.38
2022-12-03T19:32:53.283Z,102015.19
2022-12-03T19:35:21.391Z,102009.28
2022-12-03T19:37:51.333Z,102007.34
2022-12-03T19:40:19.444Z,102009.16
2022-12-03T19:42:46.767Z,101998.75
2022-12-03T19:45:14.007Z,102004.25
2022-12-03T19:47:40.655Z,102004.25
2022-12-03T19:50:08.552Z,101999.00
2022-12-03T19:52:38.564Z,102004.13
2022-12-03T19:55:05.722Z,101994.41
2022-12-03T19:57:34.618Z,101996.97
2022-12-03T20:00:01.281Z,101990.78
2022-12-03T20:02:28.362Z,101994.66
2022-12-03T20:04:56.498Z,101995.84
2022-12-03T20:07:23.212Z,101996.50
2022-12-03T20:09:51.359Z,101991.09
2022-12-03T20:12:18.276Z,101993.66
2022-12-03T20:14:45.298Z,101989.31
2022-12-03T20:17:14.987Z,101998.94
2022-12-03T20:19:42.484Z,101995.47
2022-12-03T20:22:09.478Z,101998.94
2022-12-03T20:24:36.162Z,101997.38
2022-12-03T20:27:02.775Z,102005.34
2022-12-03T20:29:29.815Z,102000.06
2022-12-03T20:31:56.516Z,101999.41
2022-12-03T20:34:25.398Z,101991.84
2022-12-03T20:36:52.606Z,101993.41
2022-12-03T20:39:19.225Z,101987.22
2022-12-03T20:41:48.299Z,101987.75
2022-12-03T20:44:14.968Z,101991.09
2022-12-03T20:46:42.417Z,101975.56
2022-12-03T20:49:09.190Z,101975.69
2022-12-03T20:51:36.764Z,101978.00
2022-12-03T20:54:03.671Z,101973.63
2022-12-03T20:56:36.436Z,101968.47
2022-12-03T20:59:05.550Z,101970.16
2022-12-03T21:01:32.911Z,101970.81
2022-12-03T21:03:59.539Z,101964.41
2022-12-03T21:06:28.243Z,101958.25
2022-12-03T21:08:56.691Z,101962.63
2022-12-03T21:11:27.130Z,101960.16
2022-12-03T21:13:54.891Z,101952.34
2022-12-03T21:16:51.874Z,101956.81
2022-12-03T21:19:12.494Z,101961.84
2022-12-03T21:21:39.056Z,101957.22
2022-12-03T21:24:06.245Z,101960.69
2022-12-03T21:26:42.526Z,101963.13
2022-12-03T21:29:09.186Z,101961.59
2022-12-03T21:31:37.368Z,101960.31
2022-12-03T21:34:05.517Z,101961.09
2022-12-03T21:36:33.047Z,101961.09
2022-12-03T21:38:59.836Z,101966.47
2022-12-03T21:41:28.866Z,101959.53
2022-12-03T21:43:55.510Z,101960.44
2022-12-03T21:47:11.641Z,101958.66
2022-12-03T21:49:09.408Z,101951.72
2022-12-03T21:51:36.001Z,101957.88
2022-12-03T21:54:05.470Z,101958.00
2022-12-03T21:56:33.137Z,101963.13
2022-12-03T21:58:59.705Z,101963.13
2022-12-03T22:01:29.104Z,101960.03
2022-12-03T22:03:56.167Z,101959.25
2022-12-03T22:06:22.831Z,101965.69
2022-12-03T22:08:51.651Z,101960.56
2022-12-03T22:11:21.103Z,101950.03
2022-12-03T22:13:51.289Z,101953.13
2022-12-03T22:16:20.606Z,101943.63
2022-12-03T22:18:48.031Z,101947.59
2022-12-03T22:21:17.888Z,101953.66
2022-12-03T22:23:45.100Z,101948.38
2022-12-03T22:26:18.453Z,101951.09
2022-12-03T22:28:46.881Z,101949.53
2022-12-03T22:31:14.921Z,101939.38
2022-12-03T22:33:42.202Z,101946.44
2022-12-03T22:36:17.955Z,101952.47
2022-12-03T22:38:47.425Z,101947.59
2022-12-03T22:41:17.541Z,101953.59
2022-12-03T22:43:45.141Z,101955.78
2022-12-03T22:46:13.171Z,101947.66
2022-12-03T22:48:42.483Z,101929.97
2022-12-03T22:51:21.269Z,101940.38
2022-12-03T22:53:53.640Z,101941.41
2022-12-03T22:56:20.541Z,101946.53
2022-12-03T22:58:47.600Z,101943.97
2022-12-03T23:01:23.166Z,101944.50
2022-12-03T23:03:50.128Z,101935.00
2022-12-03T23:06:17.011Z,101938.47
2022-12-03T23:08:43.902Z,101942.72
2022-12-03T23:11:14.038Z,101926.81
2022-12-03T23:13:40.635Z,101930.50
2022-12-03T23:16:08.868Z,101922.94
2022-12-03T23:18:37.104Z,101919.22
2022-12-03T23:21:04.525Z,101928.19
2022-12-03T23:23:31.364Z,101916.38
2022-12-03T23:26:07.267Z,101927.78
2022-12-03T23:28:37.588Z,101926.38
2022-12-03T23:31:05.361Z,101927.38
2022-12-03T23:33:38.160Z,101929.28
2022-12-03T23:36:09.081Z,101931.19
2022-12-03T23:38:35.968Z,101925.84
2022-12-03T23:41:07.949Z,101935.09
2022-12-03T23:43:34.616Z,101934.31
2022-12-03T23:46:10.310Z,101927.13
2022-12-03T23:48:37.703Z,101932.25
2022-12-03T23:51:10.443Z,101939.97
2022-12-03T23:53:39.138Z,101928.94
2022-12-03T23:56:15.515Z,101926.38
2022-12-03T23:58:42.286Z,101929.03
